Saratov, Russia
Current Conditions -  °F | °C
As of 9:30 PM on Thursday 23 Oct 2014 (Local Time) from UWSS Reporting Station
Broken Clouds Broken Clouds  
Wind Chill:   Ceiling: 2900
Heat Index: 21°   Visibility: 6mi
Dew Point: 12°   Wind: 13mph
Humidity: 68%   Direction: 310°NW
Pressure: 30.12"   Gusts: 20mph
Location:  51.57°N, 46.03°E
Report Text: UWSS 231830Z 31006G09MPS 9999 BKN029 M06/M11 Q1020 300///60NOSIG RMK QFE752
Loading
Personal Weather Stations






























Interactive Weather Map
Tropical Storm Tracking
New forecast layout! Learn more

10-Day Weather Forecast

Advertisements
Track Severe Weather on mobile